sensor_id;sensor_type;location;lat;lon;timestamp;P1;durP1;ratioP1;P2;durP2;ratioP2
19509;SDS011;9896;42.486;26.506;2022-09-28T00:00:13;16.47;;;9.30;;
19509;SDS011;9896;42.486;26.506;2022-09-28T00:02:38;15.10;;;10.10;;
19509;SDS011;9896;42.486;26.506;2022-09-28T00:05:04;17.63;;;9.80;;
19509;SDS011;9896;42.486;26.506;2022-09-28T00:07:30;19.93;;;10.60;;
19509;SDS011;9896;42.486;26.506;2022-09-28T00:09:55;12.10;;;10.33;;
19509;SDS011;9896;42.486;26.506;2022-09-28T00:12:21;18.37;;;11.87;;
19509;SDS011;9896;42.486;26.506;2022-09-28T00:14:47;18.10;;;11.27;;
19509;SDS011;9896;42.486;26.506;2022-09-28T00:17:12;15.43;;;11.43;;
19509;SDS011;9896;42.486;26.506;2022-09-28T00:19:40;17.07;;;11.20;;
19509;SDS011;9896;42.486;26.506;2022-09-28T00:22:08;17.33;;;10.73;;
19509;SDS011;9896;42.486;26.506;2022-09-28T00:24:33;18.27;;;11.27;;
19509;SDS011;9896;42.486;26.506;2022-09-28T00:26:59;18.23;;;11.20;;
19509;SDS011;9896;42.486;26.506;2022-09-28T00:31:51;21.10;;;11.00;;
19509;SDS011;9896;42.486;26.506;2022-09-28T00:34:21;16.33;;;10.63;;
19509;SDS011;9896;42.486;26.506;2022-09-28T00:36:46;16.53;;;10.40;;
19509;SDS011;9896;42.486;26.506;2022-09-28T00:39:12;13.63;;;8.70;;
19509;SDS011;9896;42.486;26.506;2022-09-28T00:41:39;12.07;;;10.30;;
19509;SDS011;9896;42.486;26.506;2022-09-28T00:46:49;15.07;;;11.07;;
19509;SDS011;9896;42.486;26.506;2022-09-28T00:52:24;14.63;;;10.37;;
19509;SDS011;9896;42.486;26.506;2022-09-28T00:54:54;18.00;;;10.70;;
19509;SDS011;9896;42.486;26.506;2022-09-28T00:57:23;19.13;;;10.37;;
19509;SDS011;9896;42.486;26.506;2022-09-28T00:59:49;10.70;;;7.07;;
19509;SDS011;9896;42.486;26.506;2022-09-28T01:02:16;11.30;;;6.60;;
19509;SDS011;9896;42.486;26.506;2022-09-28T01:04:42;10.80;;;6.33;;
19509;SDS011;9896;42.486;26.506;2022-09-28T01:07:07;11.83;;;7.10;;
19509;SDS011;9896;42.486;26.506;2022-09-28T01:09:35;9.53;;;4.90;;
19509;SDS011;9896;42.486;26.506;2022-09-28T01:12:02;9.63;;;6.00;;
19509;SDS011;9896;42.486;26.506;2022-09-28T01:14:28;9.67;;;6.53;;
19509;SDS011;9896;42.486;26.506;2022-09-28T01:16:56;12.47;;;7.63;;
19509;SDS011;9896;42.486;26.506;2022-09-28T01:22:34;2.57;;;2.37;;
19509;SDS011;9896;42.486;26.506;2022-09-28T01:25:41;2.50;;;2.23;;
19509;SDS011;9896;42.486;26.506;2022-09-28T01:28:38;3.13;;;1.93;;
19509;SDS011;9896;42.486;26.506;2022-09-28T01:31:11;2.53;;;1.50;;
19509;SDS011;9896;42.486;26.506;2022-09-28T01:33:41;3.27;;;1.90;;
19509;SDS011;9896;42.486;26.506;2022-09-28T01:36:18;3.20;;;2.47;;
19509;SDS011;9896;42.486;26.506;2022-09-28T01:39:11;3.77;;;2.60;;
19509;SDS011;9896;42.486;26.506;2022-09-28T01:41:57;3.10;;;2.47;;
19509;SDS011;9896;42.486;26.506;2022-09-28T01:44:26;4.57;;;2.93;;
19509;SDS011;9896;42.486;26.506;2022-09-28T01:46:55;6.43;;;3.30;;
19509;SDS011;9896;42.486;26.506;2022-09-28T01:49:30;4.70;;;3.40;;
19509;SDS011;9896;42.486;26.506;2022-09-28T01:52:01;4.83;;;3.17;;
19509;SDS011;9896;42.486;26.506;2022-09-28T01:54:39;4.97;;;2.60;;
19509;SDS011;9896;42.486;26.506;2022-09-28T01:57:14;5.67;;;2.63;;
19509;SDS011;9896;42.486;26.506;2022-09-28T01:59:49;3.40;;;2.70;;
19509;SDS011;9896;42.486;26.506;2022-09-28T02:02:25;3.60;;;2.50;;
19509;SDS011;9896;42.486;26.506;2022-09-28T02:04:57;2.60;;;2.40;;
19509;SDS011;9896;42.486;26.506;2022-09-28T02:07:31;4.30;;;2.63;;
19509;SDS011;9896;42.486;26.506;2022-09-28T02:10:15;4.47;;;2.77;;
19509;SDS011;9896;42.486;26.506;2022-09-28T02:12:47;4.47;;;2.70;;
19509;SDS011;9896;42.486;26.506;2022-09-28T02:18:17;6.20;;;3.90;;
19509;SDS011;9896;42.486;26.506;2022-09-28T02:20:45;6.03;;;4.30;;
19509;SDS011;9896;42.486;26.506;2022-09-28T02:23:17;8.97;;;4.47;;
19509;SDS011;9896;42.486;26.506;2022-09-28T02:25:48;6.77;;;4.00;;
19509;SDS011;9896;42.486;26.506;2022-09-28T02:28:17;6.30;;;5.33;;
19509;SDS011;9896;42.486;26.506;2022-09-28T02:30:43;4.23;;;3.83;;
19509;SDS011;9896;42.486;26.506;2022-09-28T02:35:40;4.40;;;3.80;;
19509;SDS011;9896;42.486;26.506;2022-09-28T02:38:08;4.73;;;3.80;;
19509;SDS011;9896;42.486;26.506;2022-09-28T02:40:35;7.37;;;4.40;;
19509;SDS011;9896;42.486;26.506;2022-09-28T02:43:17;9.17;;;4.87;;
19509;SDS011;9896;42.486;26.506;2022-09-28T02:48:43;5.50;;;3.40;;
19509;SDS011;9896;42.486;26.506;2022-09-28T02:51:27;5.00;;;3.33;;
19509;SDS011;9896;42.486;26.506;2022-09-28T03:04:35;5.13;;;3.90;;
19509;SDS011;9896;42.486;26.506;2022-09-28T03:09:53;9.07;;;4.53;;
19509;SDS011;9896;42.486;26.506;2022-09-28T03:12:25;4.23;;;3.10;;
19509;SDS011;9896;42.486;26.506;2022-09-28T03:17:33;3.70;;;2.80;;
19509;SDS011;9896;42.486;26.506;2022-09-28T03:19:59;4.30;;;2.97;;
19509;SDS011;9896;42.486;26.506;2022-09-28T03:22:24;6.03;;;4.23;;
19509;SDS011;9896;42.486;26.506;2022-09-28T03:24:50;8.70;;;6.63;;
19509;SDS011;9896;42.486;26.506;2022-09-28T03:27:15;6.70;;;5.57;;
19509;SDS011;9896;42.486;26.506;2022-09-28T03:29:40;6.77;;;5.37;;
19509;SDS011;9896;42.486;26.506;2022-09-28T03:32:09;6.27;;;4.00;;
19509;SDS011;9896;42.486;26.506;2022-09-28T03:34:34;6.40;;;3.90;;
19509;SDS011;9896;42.486;26.506;2022-09-28T03:37:00;5.83;;;3.60;;
19509;SDS011;9896;42.486;26.506;2022-09-28T03:39:25;4.20;;;3.10;;
19509;SDS011;9896;42.486;26.506;2022-09-28T03:41:51;6.33;;;3.37;;
19509;SDS011;9896;42.486;26.506;2022-09-28T03:44:16;6.37;;;3.57;;
19509;SDS011;9896;42.486;26.506;2022-09-28T03:46:41;4.03;;;3.30;;
19509;SDS011;9896;42.486;26.506;2022-09-28T03:49:08;3.27;;;2.97;;
19509;SDS011;9896;42.486;26.506;2022-09-28T03:51:34;5.53;;;3.47;;
19509;SDS011;9896;42.486;26.506;2022-09-28T03:53:59;9.33;;;5.80;;
19509;SDS011;9896;42.486;26.506;2022-09-28T03:56:25;13.13;;;9.90;;
19509;SDS011;9896;42.486;26.506;2022-09-28T03:58:50;9.93;;;5.60;;
19509;SDS011;9896;42.486;26.506;2022-09-28T04:01:16;9.80;;;7.40;;
19509;SDS011;9896;42.486;26.506;2022-09-28T04:03:42;8.07;;;5.30;;
19509;SDS011;9896;42.486;26.506;2022-09-28T04:06:08;6.77;;;4.30;;
19509;SDS011;9896;42.486;26.506;2022-09-28T04:08:34;4.23;;;2.77;;
19509;SDS011;9896;42.486;26.506;2022-09-28T04:10:59;4.90;;;3.27;;
19509;SDS011;9896;42.486;26.506;2022-09-28T04:13:26;3.13;;;2.83;;
19509;SDS011;9896;42.486;26.506;2022-09-28T04:15:53;3.60;;;2.63;;
19509;SDS011;9896;42.486;26.506;2022-09-28T04:18:19;3.70;;;3.03;;
19509;SDS011;9896;42.486;26.506;2022-09-28T04:20:45;4.57;;;2.97;;
19509;SDS011;9896;42.486;26.506;2022-09-28T04:23:12;5.60;;;4.00;;
19509;SDS011;9896;42.486;26.506;2022-09-28T04:25:39;6.97;;;3.20;;
19509;SDS011;9896;42.486;26.506;2022-09-28T04:28:04;10.13;;;4.20;;
19509;SDS011;9896;42.486;26.506;2022-09-28T04:30:48;4.57;;;3.20;;
19509;SDS011;9896;42.486;26.506;2022-09-28T04:33:14;4.60;;;3.77;;
19509;SDS011;9896;42.486;26.506;2022-09-28T04:35:39;6.87;;;3.70;;
19509;SDS011;9896;42.486;26.506;2022-09-28T04:38:05;4.63;;;2.67;;
19509;SDS011;9896;42.486;26.506;2022-09-28T04:40:31;4.40;;;2.60;;
19509;SDS011;9896;42.486;26.506;2022-09-28T04:42:56;4.37;;;3.33;;
19509;SDS011;9896;42.486;26.506;2022-09-28T04:45:22;4.50;;;3.50;;
19509;SDS011;9896;42.486;26.506;2022-09-28T04:47:50;5.67;;;3.43;;
19509;SDS011;9896;42.486;26.506;2022-09-28T04:50:15;8.20;;;3.80;;
19509;SDS011;9896;42.486;26.506;2022-09-28T04:52:41;5.77;;;4.20;;
19509;SDS011;9896;42.486;26.506;2022-09-28T04:55:08;21.33;;;12.47;;
19509;SDS011;9896;42.486;26.506;2022-09-28T04:57:37;4.07;;;3.43;;
19509;SDS011;9896;42.486;26.506;2022-09-28T05:00:04;4.73;;;3.40;;
19509;SDS011;9896;42.486;26.506;2022-09-28T05:02:30;6.63;;;4.30;;
19509;SDS011;9896;42.486;26.506;2022-09-28T05:04:56;7.27;;;4.67;;
19509;SDS011;9896;42.486;26.506;2022-09-28T05:07:23;12.77;;;7.37;;
19509;SDS011;9896;42.486;26.506;2022-09-28T05:09:49;9.63;;;6.00;;
19509;SDS011;9896;42.486;26.506;2022-09-28T05:12:15;6.97;;;5.00;;
19509;SDS011;9896;42.486;26.506;2022-09-28T05:14:40;5.47;;;3.47;;
19509;SDS011;9896;42.486;26.506;2022-09-28T05:17:06;5.40;;;4.30;;
19509;SDS011;9896;42.486;26.506;2022-09-28T05:19:31;10.70;;;5.17;;
19509;SDS011;9896;42.486;26.506;2022-09-28T05:21:59;5.67;;;4.33;;
19509;SDS011;9896;42.486;26.506;2022-09-28T05:24:29;6.03;;;4.07;;
19509;SDS011;9896;42.486;26.506;2022-09-28T05:26:54;7.13;;;4.57;;
19509;SDS011;9896;42.486;26.506;2022-09-28T05:29:20;8.13;;;5.03;;
19509;SDS011;9896;42.486;26.506;2022-09-28T05:31:45;6.43;;;4.43;;
19509;SDS011;9896;42.486;26.506;2022-09-28T05:34:11;7.47;;;5.60;;
19509;SDS011;9896;42.486;26.506;2022-09-28T05:36:36;12.73;;;6.63;;
19509;SDS011;9896;42.486;26.506;2022-09-28T05:39:04;13.67;;;6.00;;
19509;SDS011;9896;42.486;26.506;2022-09-28T05:41:29;12.33;;;6.17;;
19509;SDS011;9896;42.486;26.506;2022-09-28T05:43:55;13.60;;;6.47;;
19509;SDS011;9896;42.486;26.506;2022-09-28T05:46:21;10.17;;;5.33;;
19509;SDS011;9896;42.486;26.506;2022-09-28T05:48:47;10.30;;;4.70;;
19509;SDS011;9896;42.486;26.506;2022-09-28T05:51:13;10.10;;;5.47;;
19509;SDS011;9896;42.486;26.506;2022-09-28T05:53:39;12.47;;;6.90;;
19509;SDS011;9896;42.486;26.506;2022-09-28T05:56:05;11.83;;;6.07;;
19509;SDS011;9896;42.486;26.506;2022-09-28T05:58:30;9.17;;;4.93;;
19509;SDS011;9896;42.486;26.506;2022-09-28T06:00:56;7.60;;;5.70;;
19509;SDS011;9896;42.486;26.506;2022-09-28T06:03:22;13.70;;;8.00;;
19509;SDS011;9896;42.486;26.506;2022-09-28T06:05:48;14.60;;;9.27;;
19509;SDS011;9896;42.486;26.506;2022-09-28T06:08:13;12.27;;;8.77;;
19509;SDS011;9896;42.486;26.506;2022-09-28T06:10:39;15.47;;;8.80;;
19509;SDS011;9896;42.486;26.506;2022-09-28T06:13:05;11.97;;;8.80;;
19509;SDS011;9896;42.486;26.506;2022-09-28T06:15:31;16.40;;;9.77;;
19509;SDS011;9896;42.486;26.506;2022-09-28T06:18:02;15.53;;;9.77;;
19509;SDS011;9896;42.486;26.506;2022-09-28T06:20:29;14.70;;;9.70;;
19509;SDS011;9896;42.486;26.506;2022-09-28T06:22:57;14.13;;;8.00;;
19509;SDS011;9896;42.486;26.506;2022-09-28T06:25:23;12.17;;;8.37;;
19509;SDS011;9896;42.486;26.506;2022-09-28T06:27:52;10.47;;;8.30;;
19509;SDS011;9896;42.486;26.506;2022-09-28T06:30:19;16.80;;;8.70;;
19509;SDS011;9896;42.486;26.506;2022-09-28T06:32:44;10.87;;;8.20;;
19509;SDS011;9896;42.486;26.506;2022-09-28T06:35:10;12.30;;;8.90;;
19509;SDS011;9896;42.486;26.506;2022-09-28T06:37:35;13.27;;;9.23;;
19509;SDS011;9896;42.486;26.506;2022-09-28T06:40:00;17.37;;;9.17;;
19509;SDS011;9896;42.486;26.506;2022-09-28T06:42:26;12.43;;;8.27;;
19509;SDS011;9896;42.486;26.506;2022-09-28T06:44:51;10.00;;;7.90;;
19509;SDS011;9896;42.486;26.506;2022-09-28T06:47:17;13.67;;;7.43;;
19509;SDS011;9896;42.486;26.506;2022-09-28T06:49:42;10.33;;;7.63;;
19509;SDS011;9896;42.486;26.506;2022-09-28T06:52:11;11.77;;;7.50;;
19509;SDS011;9896;42.486;26.506;2022-09-28T06:54:37;14.43;;;7.53;;
19509;SDS011;9896;42.486;26.506;2022-09-28T06:57:02;10.27;;;7.83;;
19509;SDS011;9896;42.486;26.506;2022-09-28T06:59:28;14.93;;;8.23;;
19509;SDS011;9896;42.486;26.506;2022-09-28T07:01:54;15.20;;;7.93;;
19509;SDS011;9896;42.486;26.506;2022-09-28T07:04:19;11.80;;;7.90;;
19509;SDS011;9896;42.486;26.506;2022-09-28T07:06:45;11.63;;;7.30;;
19509;SDS011;9896;42.486;26.506;2022-09-28T07:09:12;17.07;;;8.07;;
19509;SDS011;9896;42.486;26.506;2022-09-28T07:11:37;14.07;;;8.47;;
19509;SDS011;9896;42.486;26.506;2022-09-28T07:14:04;18.97;;;9.67;;
19509;SDS011;9896;42.486;26.506;2022-09-28T07:16:30;18.73;;;8.50;;
19509;SDS011;9896;42.486;26.506;2022-09-28T07:18:55;19.90;;;9.50;;
19509;SDS011;9896;42.486;26.506;2022-09-28T07:21:20;15.60;;;9.00;;
19509;SDS011;9896;42.486;26.506;2022-09-28T07:23:46;14.73;;;8.43;;
19509;SDS011;9896;42.486;26.506;2022-09-28T07:26:12;11.97;;;8.17;;
19509;SDS011;9896;42.486;26.506;2022-09-28T07:28:40;14.83;;;8.73;;
19509;SDS011;9896;42.486;26.506;2022-09-28T07:31:07;13.60;;;8.60;;
19509;SDS011;9896;42.486;26.506;2022-09-28T07:33:33;10.43;;;7.13;;
19509;SDS011;9896;42.486;26.506;2022-09-28T07:35:59;11.77;;;7.37;;
19509;SDS011;9896;42.486;26.506;2022-09-28T07:38:31;17.50;;;7.40;;
19509;SDS011;9896;42.486;26.506;2022-09-28T07:40:57;9.50;;;6.20;;
19509;SDS011;9896;42.486;26.506;2022-09-28T07:43:40;10.67;;;6.17;;
19509;SDS011;9896;42.486;26.506;2022-09-28T07:46:06;9.87;;;5.93;;
19509;SDS011;9896;42.486;26.506;2022-09-28T07:48:36;14.93;;;6.57;;
19509;SDS011;9896;42.486;26.506;2022-09-28T07:51:05;10.27;;;7.00;;
19509;SDS011;9896;42.486;26.506;2022-09-28T07:53:32;7.87;;;6.00;;
19509;SDS011;9896;42.486;26.506;2022-09-28T07:55:58;12.37;;;6.73;;
19509;SDS011;9896;42.486;26.506;2022-09-28T07:58:29;10.80;;;5.50;;
19509;SDS011;9896;42.486;26.506;2022-09-28T08:00:57;8.93;;;5.43;;
19509;SDS011;9896;42.486;26.506;2022-09-28T08:03:25;10.87;;;6.27;;
19509;SDS011;9896;42.486;26.506;2022-09-28T08:05:55;10.00;;;6.00;;
19509;SDS011;9896;42.486;26.506;2022-09-28T08:08:22;10.53;;;5.90;;
19509;SDS011;9896;42.486;26.506;2022-09-28T08:10:47;8.07;;;4.60;;
19509;SDS011;9896;42.486;26.506;2022-09-28T08:13:14;6.20;;;4.60;;
19509;SDS011;9896;42.486;26.506;2022-09-28T08:15:40;5.70;;;3.47;;
19509;SDS011;9896;42.486;26.506;2022-09-28T08:18:06;5.10;;;3.20;;
19509;SDS011;9896;42.486;26.506;2022-09-28T08:20:32;4.43;;;3.70;;
19509;SDS011;9896;42.486;26.506;2022-09-28T08:23:17;9.33;;;3.67;;
19509;SDS011;9896;42.486;26.506;2022-09-28T08:25:47;5.37;;;3.20;;
19509;SDS011;9896;42.486;26.506;2022-09-28T08:28:13;4.60;;;3.30;;
19509;SDS011;9896;42.486;26.506;2022-09-28T08:30:41;7.40;;;3.77;;
19509;SDS011;9896;42.486;26.506;2022-09-28T08:33:09;5.37;;;3.67;;
19509;SDS011;9896;42.486;26.506;2022-09-28T08:35:36;3.53;;;3.10;;
19509;SDS011;9896;42.486;26.506;2022-09-28T08:38:01;4.15;;;2.50;;
19509;SDS011;9896;42.486;26.506;2022-09-28T08:40:27;3.70;;;2.78;;
19509;SDS011;9896;42.486;26.506;2022-09-28T08:42:59;3.00;;;2.80;;
19509;SDS011;9896;42.486;26.506;2022-09-28T08:45:30;3.75;;;2.50;;
19509;SDS011;9896;42.486;26.506;2022-09-28T08:50:59;2.70;;;2.40;;
19509;SDS011;9896;42.486;26.506;2022-09-28T08:53:37;6.32;;;3.33;;
19509;SDS011;9896;42.486;26.506;2022-09-28T08:56:10;3.47;;;2.50;;
19509;SDS011;9896;42.486;26.506;2022-09-28T08:58:40;5.43;;;2.65;;
19509;SDS011;9896;42.486;26.506;2022-09-28T09:01:12;2.65;;;2.45;;
19509;SDS011;9896;42.486;26.506;2022-09-28T09:03:42;5.78;;;2.83;;
19509;SDS011;9896;42.486;26.506;2022-09-28T09:19:53;5.13;;;3.25;;
19509;SDS011;9896;42.486;26.506;2022-09-28T09:22:39;3.50;;;2.80;;
19509;SDS011;9896;42.486;26.506;2022-09-28T09:36:36;4.82;;;2.72;;
19509;SDS011;9896;42.486;26.506;2022-09-28T09:47:36;2.33;;;2.13;;
19509;SDS011;9896;42.486;26.506;2022-09-28T09:50:09;2.88;;;2.15;;
19509;SDS011;9896;42.486;26.506;2022-09-28T09:55:23;3.28;;;2.30;;
19509;SDS011;9896;42.486;26.506;2022-09-28T09:57:53;4.53;;;2.00;;
19509;SDS011;9896;42.486;26.506;2022-09-28T10:00:21;4.38;;;1.70;;
19509;SDS011;9896;42.486;26.506;2022-09-28T10:02:47;3.67;;;1.85;;
19509;SDS011;9896;42.486;26.506;2022-09-28T10:05:15;3.25;;;1.80;;
19509;SDS011;9896;42.486;26.506;2022-09-28T10:07:50;4.03;;;1.90;;
19509;SDS011;9896;42.486;26.506;2022-09-28T10:12:48;2.00;;;1.80;;
19509;SDS011;9896;42.486;26.506;2022-09-28T10:15:17;2.80;;;2.20;;
19509;SDS011;9896;42.486;26.506;2022-09-28T10:17:47;2.20;;;1.58;;
19509;SDS011;9896;42.486;26.506;2022-09-28T10:20:13;2.50;;;1.58;;
19509;SDS011;9896;42.486;26.506;2022-09-28T10:22:40;1.55;;;1.45;;
19509;SDS011;9896;42.486;26.506;2022-09-28T10:25:06;3.10;;;1.50;;
19509;SDS011;9896;42.486;26.506;2022-09-28T10:27:34;1.40;;;1.30;;
19509;SDS011;9896;42.486;26.506;2022-09-28T10:30:12;2.33;;;2.10;;
19509;SDS011;9896;42.486;26.506;2022-09-28T10:32:42;3.83;;;2.75;;
19509;SDS011;9896;42.486;26.506;2022-09-28T10:40:26;2.30;;;1.58;;
19509;SDS011;9896;42.486;26.506;2022-09-28T10:43:16;2.60;;;1.70;;
19509;SDS011;9896;42.486;26.506;2022-09-28T10:45:42;2.88;;;1.50;;
19509;SDS011;9896;42.486;26.506;2022-09-28T10:48:16;2.10;;;1.40;;
19509;SDS011;9896;42.486;26.506;2022-09-28T10:53:30;1.50;;;1.40;;
19509;SDS011;9896;42.486;26.506;2022-09-28T11:01:00;1.75;;;1.40;;
19509;SDS011;9896;42.486;26.506;2022-09-28T11:03:29;2.03;;;1.20;;
19509;SDS011;9896;42.486;26.506;2022-09-28T11:08:25;2.08;;;1.40;;
19509;SDS011;9896;42.486;26.506;2022-09-28T11:11:00;1.80;;;1.70;;
19509;SDS011;9896;42.486;26.506;2022-09-28T11:13:38;2.55;;;1.40;;
19509;SDS011;9896;42.486;26.506;2022-09-28T11:16:18;2.05;;;1.45;;
19509;SDS011;9896;42.486;26.506;2022-09-28T11:18:47;2.78;;;1.45;;
19509;SDS011;9896;42.486;26.506;2022-09-28T11:21:13;2.00;;;1.20;;
19509;SDS011;9896;42.486;26.506;2022-09-28T11:26:45;2.65;;;1.58;;
19509;SDS011;9896;42.486;26.506;2022-09-28T11:29:21;1.40;;;1.20;;
19509;SDS011;9896;42.486;26.506;2022-09-28T11:31:51;2.00;;;1.50;;
19509;SDS011;9896;42.486;26.506;2022-09-28T11:34:23;2.30;;;1.40;;
19509;SDS011;9896;42.486;26.506;2022-09-28T11:42:18;2.85;;;1.38;;
19509;SDS011;9896;42.486;26.506;2022-09-28T11:45:05;3.13;;;2.47;;
19509;SDS011;9896;42.486;26.506;2022-09-28T11:47:58;2.25;;;1.80;;
19509;SDS011;9896;42.486;26.506;2022-09-28T11:50:31;2.80;;;1.98;;
19509;SDS011;9896;42.486;26.506;2022-09-28T11:53:08;4.05;;;2.47;;
19509;SDS011;9896;42.486;26.506;2022-09-28T11:55:42;2.00;;;1.60;;
19509;SDS011;9896;42.486;26.506;2022-09-28T11:58:36;2.33;;;1.70;;
19509;SDS011;9896;42.486;26.506;2022-09-28T12:01:19;3.28;;;1.80;;
19509;SDS011;9896;42.486;26.506;2022-09-28T12:03:51;3.40;;;1.80;;
19509;SDS011;9896;42.486;26.506;2022-09-28T12:06:28;1.77;;;1.40;;
19509;SDS011;9896;42.486;26.506;2022-09-28T12:09:09;1.83;;;1.08;;
19509;SDS011;9896;42.486;26.506;2022-09-28T12:11:44;1.80;;;1.60;;
19509;SDS011;9896;42.486;26.506;2022-09-28T12:14:17;1.67;;;1.10;;
19509;SDS011;9896;42.486;26.506;2022-09-28T12:16:49;1.98;;;1.40;;
19509;SDS011;9896;42.486;26.506;2022-09-28T12:19:47;2.60;;;1.40;;
19509;SDS011;9896;42.486;26.506;2022-09-28T12:24:51;3.05;;;1.33;;
19509;SDS011;9896;42.486;26.506;2022-09-28T12:27:22;2.03;;;1.05;;
19509;SDS011;9896;42.486;26.506;2022-09-28T12:32:54;2.05;;;1.50;;
19509;SDS011;9896;42.486;26.506;2022-09-28T12:35:48;2.70;;;1.60;;
19509;SDS011;9896;42.486;26.506;2022-09-28T12:43:26;2.50;;;1.20;;
19509;SDS011;9896;42.486;26.506;2022-09-28T12:46:09;1.70;;;1.30;;
19509;SDS011;9896;42.486;26.506;2022-09-28T12:51:58;2.03;;;1.42;;
19509;SDS011;9896;42.486;26.506;2022-09-28T13:00:05;3.35;;;1.42;;
19509;SDS011;9896;42.486;26.506;2022-09-28T13:10:49;1.75;;;1.17;;
19509;SDS011;9896;42.486;26.506;2022-09-28T13:13:30;2.10;;;1.65;;
19509;SDS011;9896;42.486;26.506;2022-09-28T13:24:26;1.88;;;1.20;;
19509;SDS011;9896;42.486;26.506;2022-09-28T13:26:58;1.10;;;1.00;;
19509;SDS011;9896;42.486;26.506;2022-09-28T13:29:30;1.70;;;1.20;;
19509;SDS011;9896;42.486;26.506;2022-09-28T13:31:58;1.30;;;1.20;;
19509;SDS011;9896;42.486;26.506;2022-09-28T13:34:27;2.70;;;1.48;;
19509;SDS011;9896;42.486;26.506;2022-09-28T13:55:59;3.78;;;1.13;;
19509;SDS011;9896;42.486;26.506;2022-09-28T13:58:34;2.63;;;1.20;;
19509;SDS011;9896;42.486;26.506;2022-09-28T14:06:26;2.70;;;1.00;;
19509;SDS011;9896;42.486;26.506;2022-09-28T14:09:06;3.08;;;0.80;;
19509;SDS011;9896;42.486;26.506;2022-09-28T14:12:14;1.95;;;1.00;;
19509;SDS011;9896;42.486;26.506;2022-09-28T14:14:52;3.55;;;1.00;;
19509;SDS011;9896;42.486;26.506;2022-09-28T14:19:44;2.85;;;1.10;;
19509;SDS011;9896;42.486;26.506;2022-09-28T14:25:23;5.30;;;1.00;;
19509;SDS011;9896;42.486;26.506;2022-09-28T14:30:51;1.77;;;1.10;;
19509;SDS011;9896;42.486;26.506;2022-09-28T14:38:43;1.50;;;0.80;;
19509;SDS011;9896;42.486;26.506;2022-09-28T14:41:39;2.17;;;1.20;;
19509;SDS011;9896;42.486;26.506;2022-09-28T14:44:07;2.05;;;0.80;;
19509;SDS011;9896;42.486;26.506;2022-09-28T14:54:18;4.82;;;2.70;;
19509;SDS011;9896;42.486;26.506;2022-09-28T14:56:55;2.08;;;1.50;;
19509;SDS011;9896;42.486;26.506;2022-09-28T14:59:37;2.42;;;1.10;;
19509;SDS011;9896;42.486;26.506;2022-09-28T15:02:17;2.67;;;1.00;;
19509;SDS011;9896;42.486;26.506;2022-09-28T15:07:23;1.80;;;0.90;;
19509;SDS011;9896;42.486;26.506;2022-09-28T15:09:53;5.60;;;1.92;;
19509;SDS011;9896;42.486;26.506;2022-09-28T15:12:26;2.65;;;1.50;;
19509;SDS011;9896;42.486;26.506;2022-09-28T15:14:54;4.15;;;1.90;;
19509;SDS011;9896;42.486;26.506;2022-09-28T15:17:26;1.73;;;1.40;;
19509;SDS011;9896;42.486;26.506;2022-09-28T15:22:24;3.05;;;1.52;;
19509;SDS011;9896;42.486;26.506;2022-09-28T15:24:54;3.15;;;1.10;;
19509;SDS011;9896;42.486;26.506;2022-09-28T15:27:35;1.58;;;0.90;;
19509;SDS011;9896;42.486;26.506;2022-09-28T15:30:21;3.00;;;1.30;;
19509;SDS011;9896;42.486;26.506;2022-09-28T15:32:52;1.88;;;1.38;;
19509;SDS011;9896;42.486;26.506;2022-09-28T15:37:49;2.28;;;1.30;;
19509;SDS011;9896;42.486;26.506;2022-09-28T15:42:55;1.40;;;0.90;;
19509;SDS011;9896;42.486;26.506;2022-09-28T15:45:23;2.92;;;1.05;;
19509;SDS011;9896;42.486;26.506;2022-09-28T15:51:10;3.67;;;2.03;;
19509;SDS011;9896;42.486;26.506;2022-09-28T15:53:45;2.00;;;1.15;;
19509;SDS011;9896;42.486;26.506;2022-09-28T15:56:17;2.13;;;0.90;;
19509;SDS011;9896;42.486;26.506;2022-09-28T15:58:43;1.73;;;0.93;;
19509;SDS011;9896;42.486;26.506;2022-09-28T16:01:35;2.45;;;1.30;;
19509;SDS011;9896;42.486;26.506;2022-09-28T16:12:47;1.65;;;1.10;;
19509;SDS011;9896;42.486;26.506;2022-09-28T16:15:21;2.17;;;1.00;;
19509;SDS011;9896;42.486;26.506;2022-09-28T16:17:51;2.88;;;1.20;;
19509;SDS011;9896;42.486;26.506;2022-09-28T16:20:19;1.60;;;1.05;;
19509;SDS011;9896;42.486;26.506;2022-09-28T16:22:59;2.17;;;1.23;;
19509;SDS011;9896;42.486;26.506;2022-09-28T16:28:24;3.05;;;1.38;;
19509;SDS011;9896;42.486;26.506;2022-09-28T16:33:36;3.28;;;1.63;;
19509;SDS011;9896;42.486;26.506;2022-09-28T16:36:11;3.53;;;1.80;;
19509;SDS011;9896;42.486;26.506;2022-09-28T16:38:38;2.90;;;2.20;;
19509;SDS011;9896;42.486;26.506;2022-09-28T16:41:04;6.43;;;2.50;;
19509;SDS011;9896;42.486;26.506;2022-09-28T16:43:31;7.20;;;2.85;;
19509;SDS011;9896;42.486;26.506;2022-09-28T16:46:09;5.90;;;3.28;;
19509;SDS011;9896;42.486;26.506;2022-09-28T16:48:43;7.88;;;3.65;;
19509;SDS011;9896;42.486;26.506;2022-09-28T16:51:13;14.55;;;4.70;;
19509;SDS011;9896;42.486;26.506;2022-09-28T16:53:42;11.13;;;4.65;;
19509;SDS011;9896;42.486;26.506;2022-09-28T16:56:27;12.38;;;4.18;;
19509;SDS011;9896;42.486;26.506;2022-09-28T16:58:54;5.70;;;3.50;;
19509;SDS011;9896;42.486;26.506;2022-09-28T17:01:20;6.53;;;3.30;;
19509;SDS011;9896;42.486;26.506;2022-09-28T17:03:46;5.30;;;3.25;;
19509;SDS011;9896;42.486;26.506;2022-09-28T17:06:14;10.43;;;3.97;;
19509;SDS011;9896;42.486;26.506;2022-09-28T17:08:42;9.63;;;4.38;;
19509;SDS011;9896;42.486;26.506;2022-09-28T17:11:11;8.38;;;4.75;;
19509;SDS011;9896;42.486;26.506;2022-09-28T17:13:41;17.88;;;5.40;;
19509;SDS011;9896;42.486;26.506;2022-09-28T17:16:13;20.77;;;7.65;;
19509;SDS011;9896;42.486;26.506;2022-09-28T17:18:46;15.48;;;7.03;;
19509;SDS011;9896;42.486;26.506;2022-09-28T17:23:43;16.58;;;7.95;;
19509;SDS011;9896;42.486;26.506;2022-09-28T17:26:14;13.05;;;6.72;;
19509;SDS011;9896;42.486;26.506;2022-09-28T17:28:47;20.58;;;7.40;;
19509;SDS011;9896;42.486;26.506;2022-09-28T17:31:16;10.00;;;4.73;;
19509;SDS011;9896;42.486;26.506;2022-09-28T17:33:44;15.60;;;5.65;;
19509;SDS011;9896;42.486;26.506;2022-09-28T17:36:13;8.80;;;4.50;;
19509;SDS011;9896;42.486;26.506;2022-09-28T17:38:40;14.33;;;6.77;;
19509;SDS011;9896;42.486;26.506;2022-09-28T17:41:10;16.03;;;6.30;;
19509;SDS011;9896;42.486;26.506;2022-09-28T17:43:37;14.90;;;6.17;;
19509;SDS011;9896;42.486;26.506;2022-09-28T17:46:06;15.07;;;7.00;;
19509;SDS011;9896;42.486;26.506;2022-09-28T17:48:58;11.40;;;5.07;;
19509;SDS011;9896;42.486;26.506;2022-09-28T17:51:28;9.88;;;4.80;;
19509;SDS011;9896;42.486;26.506;2022-09-28T17:53:58;10.40;;;4.47;;
19509;SDS011;9896;42.486;26.506;2022-09-28T17:56:25;17.43;;;6.80;;
19509;SDS011;9896;42.486;26.506;2022-09-28T17:58:51;14.87;;;6.70;;
19509;SDS011;9896;42.486;26.506;2022-09-28T18:01:16;56.73;;;21.90;;
19509;SDS011;9896;42.486;26.506;2022-09-28T18:03:42;18.63;;;7.43;;
19509;SDS011;9896;42.486;26.506;2022-09-28T18:06:12;20.80;;;9.67;;
19509;SDS011;9896;42.486;26.506;2022-09-28T18:08:40;22.93;;;7.47;;
19509;SDS011;9896;42.486;26.506;2022-09-28T18:11:06;20.30;;;6.57;;
19509;SDS011;9896;42.486;26.506;2022-09-28T18:13:32;20.47;;;7.57;;
19509;SDS011;9896;42.486;26.506;2022-09-28T18:15:58;16.47;;;6.63;;
19509;SDS011;9896;42.486;26.506;2022-09-28T18:18:23;16.87;;;7.80;;
19509;SDS011;9896;42.486;26.506;2022-09-28T18:20:49;19.53;;;8.30;;
19509;SDS011;9896;42.486;26.506;2022-09-28T18:23:15;16.90;;;6.83;;
19509;SDS011;9896;42.486;26.506;2022-09-28T18:25:41;15.73;;;6.33;;
19509;SDS011;9896;42.486;26.506;2022-09-28T18:28:08;12.10;;;5.73;;
19509;SDS011;9896;42.486;26.506;2022-09-28T18:30:36;10.23;;;5.37;;
19509;SDS011;9896;42.486;26.506;2022-09-28T18:33:07;17.93;;;8.27;;